sensor_id;sensor_type;location;lat;lon;timestamp;temperature;humidity
20182;DHT22;10250;50.756;6.172;2024-02-26T00:01:43;5.90;99.90
20182;DHT22;10250;50.756;6.172;2024-02-26T00:03:44;6.00;99.90
20182;DHT22;10250;50.756;6.172;2024-02-26T00:05:46;5.80;99.90
20182;DHT22;10250;50.756;6.172;2024-02-26T00:07:46;5.80;99.90
20182;DHT22;10250;50.756;6.172;2024-02-26T00:09:47;5.80;99.90
20182;DHT22;10250;50.756;6.172;2024-02-26T00:11:48;5.70;99.90
20182;DHT22;10250;50.756;6.172;2024-02-26T00:13:48;5.70;99.90
20182;DHT22;10250;50.756;6.172;2024-02-26T00:15:49;5.70;99.90
20182;DHT22;10250;50.756;6.172;2024-02-26T00:17:50;5.70;99.90
20182;DHT22;10250;50.756;6.172;2024-02-26T00:19:50;5.60;99.90
20182;DHT22;10250;50.756;6.172;2024-02-26T00:21:51;5.60;99.90
20182;DHT22;10250;50.756;6.172;2024-02-26T00:23:54;5.50;99.90
20182;DHT22;10250;50.756;6.172;2024-02-26T00:25:54;5.50;99.90
20182;DHT22;10250;50.756;6.172;2024-02-26T00:27:55;5.40;99.90
20182;DHT22;10250;50.756;6.172;2024-02-26T00:29:55;5.40;99.90
20182;DHT22;10250;50.756;6.172;2024-02-26T00:31:56;5.40;99.90
20182;DHT22;10250;50.756;6.172;2024-02-26T00:33:56;5.30;99.90
20182;DHT22;10250;50.756;6.172;2024-02-26T00:35:57;5.30;99.90
20182;DHT22;10250;50.756;6.172;2024-02-26T00:37:58;5.30;99.90
20182;DHT22;10250;50.756;6.172;2024-02-26T00:39:59;5.30;99.90
20182;DHT22;10250;50.756;6.172;2024-02-26T00:41:59;5.30;99.90
20182;DHT22;10250;50.756;6.172;2024-02-26T00:44:00;5.20;99.90
20182;DHT22;10250;50.756;6.172;2024-02-26T00:46:00;5.30;99.90
20182;DHT22;10250;50.756;6.172;2024-02-26T00:48:01;5.30;99.90
20182;DHT22;10250;50.756;6.172;2024-02-26T00:50:05;5.30;99.90
20182;DHT22;10250;50.756;6.172;2024-02-26T00:52:06;5.30;99.90
20182;DHT22;10250;50.756;6.172;2024-02-26T00:54:06;5.30;99.90
20182;DHT22;10250;50.756;6.172;2024-02-26T00:56:07;5.30;99.90
20182;DHT22;10250;50.756;6.172;2024-02-26T00:58:07;5.40;99.90
20182;DHT22;10250;50.756;6.172;2024-02-26T01:00:08;5.40;99.90
20182;DHT22;10250;50.756;6.172;2024-02-26T01:02:09;5.30;99.90
20182;DHT22;10250;50.756;6.172;2024-02-26T01:04:09;5.30;99.90
20182;DHT22;10250;50.756;6.172;2024-02-26T01:06:10;5.40;99.90
20182;DHT22;10250;50.756;6.172;2024-02-26T01:08:10;5.30;99.90
20182;DHT22;10250;50.756;6.172;2024-02-26T01:10:11;5.30;99.90
20182;DHT22;10250;50.756;6.172;2024-02-26T01:12:11;5.30;99.90
20182;DHT22;10250;50.756;6.172;2024-02-26T01:14:12;5.30;99.90
20182;DHT22;10250;50.756;6.172;2024-02-26T01:16:13;5.30;99.90
20182;DHT22;10250;50.756;6.172;2024-02-26T01:18:13;5.30;99.90
20182;DHT22;10250;50.756;6.172;2024-02-26T01:20:14;5.30;99.90
20182;DHT22;10250;50.756;6.172;2024-02-26T01:22:14;5.40;99.90
20182;DHT22;10250;50.756;6.172;2024-02-26T01:24:15;5.20;99.90
20182;DHT22;10250;50.756;6.172;2024-02-26T01:26:16;5.20;99.90
20182;DHT22;10250;50.756;6.172;2024-02-26T01:28:16;5.30;99.90
20182;DHT22;10250;50.756;6.172;2024-02-26T01:30:17;5.30;99.90
20182;DHT22;10250;50.756;6.172;2024-02-26T01:32:17;5.20;99.90
20182;DHT22;10250;50.756;6.172;2024-02-26T01:34:18;5.20;99.90
20182;DHT22;10250;50.756;6.172;2024-02-26T01:36:19;5.30;99.90
20182;DHT22;10250;50.756;6.172;2024-02-26T01:38:19;5.30;99.90
20182;DHT22;10250;50.756;6.172;2024-02-26T01:40:20;5.30;99.90
20182;DHT22;10250;50.756;6.172;2024-02-26T01:42:20;5.30;99.90
20182;DHT22;10250;50.756;6.172;2024-02-26T01:44:21;5.30;99.90
20182;DHT22;10250;50.756;6.172;2024-02-26T01:46:22;5.20;99.90
20182;DHT22;10250;50.756;6.172;2024-02-26T01:48:23;5.20;99.90
20182;DHT22;10250;50.756;6.172;2024-02-26T01:50:24;5.30;99.90
20182;DHT22;10250;50.756;6.172;2024-02-26T01:52:25;5.30;99.90
20182;DHT22;10250;50.756;6.172;2024-02-26T01:54:26;5.30;99.90
20182;DHT22;10250;50.756;6.172;2024-02-26T01:56:27;5.30;99.90
20182;DHT22;10250;50.756;6.172;2024-02-26T01:58:30;5.20;99.90
20182;DHT22;10250;50.756;6.172;2024-02-26T02:00:31;5.20;99.90
20182;DHT22;10250;50.756;6.172;2024-02-26T02:02:32;5.20;99.90
20182;DHT22;10250;50.756;6.172;2024-02-26T02:04:33;5.30;99.90
20182;DHT22;10250;50.756;6.172;2024-02-26T02:06:36;5.30;99.90
20182;DHT22;10250;50.756;6.172;2024-02-26T02:08:37;5.30;99.90
20182;DHT22;10250;50.756;6.172;2024-02-26T02:10:39;5.20;99.90
20182;DHT22;10250;50.756;6.172;2024-02-26T02:12:41;5.30;99.90
20182;DHT22;10250;50.756;6.172;2024-02-26T02:14:42;5.30;99.90
20182;DHT22;10250;50.756;6.172;2024-02-26T02:16:42;5.40;99.90
20182;DHT22;10250;50.756;6.172;2024-02-26T02:18:43;5.30;99.90
20182;DHT22;10250;50.756;6.172;2024-02-26T02:20:43;5.20;99.90
20182;DHT22;10250;50.756;6.172;2024-02-26T02:22:45;5.10;99.90
20182;DHT22;10250;50.756;6.172;2024-02-26T02:24:48;5.30;99.90
20182;DHT22;10250;50.756;6.172;2024-02-26T02:26:49;5.30;99.90
20182;DHT22;10250;50.756;6.172;2024-02-26T02:28:49;5.20;99.90
20182;DHT22;10250;50.756;6.172;2024-02-26T02:30:50;5.20;99.90
20182;DHT22;10250;50.756;6.172;2024-02-26T02:32:51;5.10;99.90
20182;DHT22;10250;50.756;6.172;2024-02-26T02:34:52;5.10;99.90
20182;DHT22;10250;50.756;6.172;2024-02-26T02:36:53;5.20;99.90
20182;DHT22;10250;50.756;6.172;2024-02-26T02:38:54;5.20;99.90
20182;DHT22;10250;50.756;6.172;2024-02-26T02:40:55;5.10;99.90
20182;DHT22;10250;50.756;6.172;2024-02-26T02:42:55;5.10;99.90
20182;DHT22;10250;50.756;6.172;2024-02-26T02:44:56;5.20;99.90
20182;DHT22;10250;50.756;6.172;2024-02-26T02:46:57;5.20;99.90
20182;DHT22;10250;50.756;6.172;2024-02-26T02:48:57;5.20;99.90
20182;DHT22;10250;50.756;6.172;2024-02-26T02:50:58;5.20;99.90
20182;DHT22;10250;50.756;6.172;2024-02-26T02:52:59;5.20;99.90
20182;DHT22;10250;50.756;6.172;2024-02-26T02:54:59;5.20;99.90
20182;DHT22;10250;50.756;6.172;2024-02-26T02:57:00;5.20;99.90
20182;DHT22;10250;50.756;6.172;2024-02-26T02:59:00;5.10;99.90
20182;DHT22;10250;50.756;6.172;2024-02-26T03:01:01;5.10;99.90
20182;DHT22;10250;50.756;6.172;2024-02-26T03:03:02;5.20;99.90
20182;DHT22;10250;50.756;6.172;2024-02-26T03:05:05;5.10;99.90
20182;DHT22;10250;50.756;6.172;2024-02-26T03:07:06;5.10;99.90
20182;DHT22;10250;50.756;6.172;2024-02-26T03:09:07;5.10;99.90
20182;DHT22;10250;50.756;6.172;2024-02-26T03:11:07;5.10;99.90
20182;DHT22;10250;50.756;6.172;2024-02-26T03:13:08;5.10;99.90
20182;DHT22;10250;50.756;6.172;2024-02-26T03:15:09;5.00;99.90
20182;DHT22;10250;50.756;6.172;2024-02-26T03:17:11;5.10;99.90
20182;DHT22;10250;50.756;6.172;2024-02-26T03:19:15;5.10;99.90
20182;DHT22;10250;50.756;6.172;2024-02-26T03:21:16;5.10;99.90
20182;DHT22;10250;50.756;6.172;2024-02-26T03:23:17;5.00;99.90
20182;DHT22;10250;50.756;6.172;2024-02-26T03:25:17;5.00;99.90
20182;DHT22;10250;50.756;6.172;2024-02-26T03:27:18;5.00;99.90
20182;DHT22;10250;50.756;6.172;2024-02-26T03:29:19;5.00;99.90
20182;DHT22;10250;50.756;6.172;2024-02-26T03:31:19;5.00;99.90
20182;DHT22;10250;50.756;6.172;2024-02-26T03:33:21;4.90;99.90
20182;DHT22;10250;50.756;6.172;2024-02-26T03:35:22;4.90;99.90
20182;DHT22;10250;50.756;6.172;2024-02-26T03:37:23;4.90;99.90
20182;DHT22;10250;50.756;6.172;2024-02-26T03:39:23;4.90;99.90
20182;DHT22;10250;50.756;6.172;2024-02-26T03:41:24;4.90;99.90
20182;DHT22;10250;50.756;6.172;2024-02-26T03:43:24;4.90;99.90
20182;DHT22;10250;50.756;6.172;2024-02-26T03:45:25;4.90;99.90
20182;DHT22;10250;50.756;6.172;2024-02-26T03:47:26;5.00;99.90
20182;DHT22;10250;50.756;6.172;2024-02-26T03:49:26;5.00;99.90
20182;DHT22;10250;50.756;6.172;2024-02-26T03:51:27;5.00;99.90
20182;DHT22;10250;50.756;6.172;2024-02-26T03:53:31;4.90;99.90
20182;DHT22;10250;50.756;6.172;2024-02-26T03:55:32;5.00;99.90
20182;DHT22;10250;50.756;6.172;2024-02-26T03:57:32;4.90;99.90
20182;DHT22;10250;50.756;6.172;2024-02-26T03:59:33;5.00;99.90
20182;DHT22;10250;50.756;6.172;2024-02-26T04:01:33;5.00;99.90
20182;DHT22;10250;50.756;6.172;2024-02-26T04:03:34;4.90;99.90
20182;DHT22;10250;50.756;6.172;2024-02-26T04:05:35;5.00;99.90
20182;DHT22;10250;50.756;6.172;2024-02-26T04:07:35;4.90;99.90
20182;DHT22;10250;50.756;6.172;2024-02-26T04:09:36;4.90;99.90
20182;DHT22;10250;50.756;6.172;2024-02-26T04:11:37;4.90;99.90
20182;DHT22;10250;50.756;6.172;2024-02-26T04:13:37;4.90;99.90
20182;DHT22;10250;50.756;6.172;2024-02-26T04:15:41;4.90;99.90
20182;DHT22;10250;50.756;6.172;2024-02-26T04:17:41;4.90;99.90
20182;DHT22;10250;50.756;6.172;2024-02-26T04:19:42;4.90;99.90
20182;DHT22;10250;50.756;6.172;2024-02-26T04:21:43;4.90;99.90
20182;DHT22;10250;50.756;6.172;2024-02-26T04:23:44;4.90;99.90
20182;DHT22;10250;50.756;6.172;2024-02-26T04:25:44;4.90;99.90
20182;DHT22;10250;50.756;6.172;2024-02-26T04:27:45;4.90;99.90
20182;DHT22;10250;50.756;6.172;2024-02-26T04:29:46;4.90;99.90
20182;DHT22;10250;50.756;6.172;2024-02-26T04:31:46;4.80;99.90
20182;DHT22;10250;50.756;6.172;2024-02-26T04:33:48;4.80;99.90
20182;DHT22;10250;50.756;6.172;2024-02-26T04:35:48;4.80;99.90
20182;DHT22;10250;50.756;6.172;2024-02-26T04:37:49;4.80;99.90
20182;DHT22;10250;50.756;6.172;2024-02-26T04:39:49;4.80;99.90
20182;DHT22;10250;50.756;6.172;2024-02-26T04:41:50;4.80;99.90
20182;DHT22;10250;50.756;6.172;2024-02-26T04:43:50;4.80;99.90
20182;DHT22;10250;50.756;6.172;2024-02-26T04:45:51;4.90;99.90
20182;DHT22;10250;50.756;6.172;2024-02-26T04:47:53;4.90;99.90
20182;DHT22;10250;50.756;6.172;2024-02-26T04:49:53;4.90;99.90
20182;DHT22;10250;50.756;6.172;2024-02-26T04:51:54;4.90;99.90
20182;DHT22;10250;50.756;6.172;2024-02-26T04:53:54;4.80;99.90
20182;DHT22;10250;50.756;6.172;2024-02-26T04:55:55;4.80;99.90
20182;DHT22;10250;50.756;6.172;2024-02-26T04:57:55;4.80;99.90
20182;DHT22;10250;50.756;6.172;2024-02-26T04:59:56;4.80;99.90
20182;DHT22;10250;50.756;6.172;2024-02-26T05:01:56;4.70;99.90
20182;DHT22;10250;50.756;6.172;2024-02-26T05:03:57;4.70;99.90
20182;DHT22;10250;50.756;6.172;2024-02-26T05:05:57;4.70;99.90
20182;DHT22;10250;50.756;6.172;2024-02-26T05:07:58;4.80;99.90
20182;DHT22;10250;50.756;6.172;2024-02-26T05:09:59;4.80;99.90
20182;DHT22;10250;50.756;6.172;2024-02-26T05:11:59;4.80;99.90
20182;DHT22;10250;50.756;6.172;2024-02-26T05:14:00;4.80;99.90
20182;DHT22;10250;50.756;6.172;2024-02-26T05:16:01;4.80;99.90
20182;DHT22;10250;50.756;6.172;2024-02-26T05:18:02;4.80;99.90
20182;DHT22;10250;50.756;6.172;2024-02-26T05:20:03;4.70;99.90
20182;DHT22;10250;50.756;6.172;2024-02-26T05:22:04;4.80;99.90
20182;DHT22;10250;50.756;6.172;2024-02-26T05:24:04;4.80;99.90
20182;DHT22;10250;50.756;6.172;2024-02-26T05:26:05;4.80;99.90
20182;DHT22;10250;50.756;6.172;2024-02-26T05:28:06;4.80;99.90
20182;DHT22;10250;50.756;6.172;2024-02-26T05:30:07;4.90;99.90
20182;DHT22;10250;50.756;6.172;2024-02-26T05:32:07;4.80;99.90
20182;DHT22;10250;50.756;6.172;2024-02-26T05:34:08;4.80;99.90
20182;DHT22;10250;50.756;6.172;2024-02-26T05:36:08;4.80;99.90
20182;DHT22;10250;50.756;6.172;2024-02-26T05:38:09;4.80;99.90
20182;DHT22;10250;50.756;6.172;2024-02-26T05:40:10;4.80;99.90
20182;DHT22;10250;50.756;6.172;2024-02-26T05:42:11;4.80;99.90
20182;DHT22;10250;50.756;6.172;2024-02-26T05:44:11;4.80;99.90
20182;DHT22;10250;50.756;6.172;2024-02-26T05:46:12;4.80;99.90
20182;DHT22;10250;50.756;6.172;2024-02-26T05:48:12;4.80;99.90
20182;DHT22;10250;50.756;6.172;2024-02-26T05:50:13;4.80;99.90
20182;DHT22;10250;50.756;6.172;2024-02-26T05:52:15;4.80;99.90
20182;DHT22;10250;50.756;6.172;2024-02-26T05:54:16;4.80;99.90
20182;DHT22;10250;50.756;6.172;2024-02-26T05:56:16;4.80;99.90
20182;DHT22;10250;50.756;6.172;2024-02-26T05:58:17;4.80;99.90
20182;DHT22;10250;50.756;6.172;2024-02-26T06:00:18;4.90;99.90
20182;DHT22;10250;50.756;6.172;2024-02-26T06:02:19;4.80;99.90
20182;DHT22;10250;50.756;6.172;2024-02-26T06:04:19;4.80;99.90
20182;DHT22;10250;50.756;6.172;2024-02-26T06:06:20;4.90;99.90
20182;DHT22;10250;50.756;6.172;2024-02-26T06:08:23;4.80;99.90
20182;DHT22;10250;50.756;6.172;2024-02-26T06:10:23;4.80;99.90
20182;DHT22;10250;50.756;6.172;2024-02-26T06:12:24;4.80;99.90
20182;DHT22;10250;50.756;6.172;2024-02-26T06:14:24;4.80;99.90
20182;DHT22;10250;50.756;6.172;2024-02-26T06:16:25;4.80;99.90
20182;DHT22;10250;50.756;6.172;2024-02-26T06:18:26;4.80;99.90
20182;DHT22;10250;50.756;6.172;2024-02-26T06:20:26;4.80;99.90
20182;DHT22;10250;50.756;6.172;2024-02-26T06:22:27;4.90;99.90
20182;DHT22;10250;50.756;6.172;2024-02-26T06:24:27;4.90;99.90
20182;DHT22;10250;50.756;6.172;2024-02-26T06:26:28;4.90;99.90
20182;DHT22;10250;50.756;6.172;2024-02-26T06:28:29;4.90;99.90
20182;DHT22;10250;50.756;6.172;2024-02-26T06:30:32;4.90;99.90
20182;DHT22;10250;50.756;6.172;2024-02-26T06:32:33;4.80;99.90
20182;DHT22;10250;50.756;6.172;2024-02-26T06:34:33;4.90;99.90
20182;DHT22;10250;50.756;6.172;2024-02-26T06:36:34;4.90;99.90
20182;DHT22;10250;50.756;6.172;2024-02-26T06:38:35;4.90;99.90
20182;DHT22;10250;50.756;6.172;2024-02-26T06:40:35;4.80;99.90
20182;DHT22;10250;50.756;6.172;2024-02-26T06:42:36;4.90;99.90
20182;DHT22;10250;50.756;6.172;2024-02-26T06:44:37;4.90;99.90
20182;DHT22;10250;50.756;6.172;2024-02-26T06:46:37;4.90;99.90
20182;DHT22;10250;50.756;6.172;2024-02-26T06:48:38;4.90;99.90
20182;DHT22;10250;50.756;6.172;2024-02-26T06:50:38;4.90;99.90
20182;DHT22;10250;50.756;6.172;2024-02-26T06:52:39;4.90;99.90
20182;DHT22;10250;50.756;6.172;2024-02-26T06:54:40;4.90;99.90
20182;DHT22;10250;50.756;6.172;2024-02-26T06:56:40;4.90;99.90
20182;DHT22;10250;50.756;6.172;2024-02-26T06:58:41;4.90;99.90
20182;DHT22;10250;50.756;6.172;2024-02-26T07:00:41;4.90;99.90
20182;DHT22;10250;50.756;6.172;2024-02-26T07:02:45;4.90;99.90
20182;DHT22;10250;50.756;6.172;2024-02-26T07:04:45;5.00;99.90
20182;DHT22;10250;50.756;6.172;2024-02-26T07:06:47;4.90;99.90
20182;DHT22;10250;50.756;6.172;2024-02-26T07:08:47;5.00;99.90
20182;DHT22;10250;50.756;6.172;2024-02-26T07:10:48;4.90;99.90
20182;DHT22;10250;50.756;6.172;2024-02-26T07:12:48;5.00;99.90
20182;DHT22;10250;50.756;6.172;2024-02-26T07:14:49;4.90;99.90
20182;DHT22;10250;50.756;6.172;2024-02-26T07:16:50;5.00;99.90
20182;DHT22;10250;50.756;6.172;2024-02-26T07:18:51;5.00;99.90
20182;DHT22;10250;50.756;6.172;2024-02-26T07:20:51;5.00;99.90
20182;DHT22;10250;50.756;6.172;2024-02-26T07:22:52;4.90;99.90
20182;DHT22;10250;50.756;6.172;2024-02-26T07:24:53;5.00;99.90
20182;DHT22;10250;50.756;6.172;2024-02-26T07:26:53;5.00;99.90
20182;DHT22;10250;50.756;6.172;2024-02-26T07:28:55;5.00;99.90
20182;DHT22;10250;50.756;6.172;2024-02-26T07:30:56;5.00;99.90
20182;DHT22;10250;50.756;6.172;2024-02-26T07:32:56;5.00;99.90
20182;DHT22;10250;50.756;6.172;2024-02-26T07:34:57;5.00;99.90
20182;DHT22;10250;50.756;6.172;2024-02-26T07:36:57;5.00;99.90
20182;DHT22;10250;50.756;6.172;2024-02-26T07:38:58;4.90;99.90
20182;DHT22;10250;50.756;6.172;2024-02-26T07:40:59;4.90;99.90
20182;DHT22;10250;50.756;6.172;2024-02-26T07:42:59;5.00;99.90
20182;DHT22;10250;50.756;6.172;2024-02-26T07:45:00;4.90;99.90
20182;DHT22;10250;50.756;6.172;2024-02-26T07:47:00;5.00;99.90
20182;DHT22;10250;50.756;6.172;2024-02-26T07:49:01;5.00;99.90
20182;DHT22;10250;50.756;6.172;2024-02-26T07:51:01;5.00;99.90
20182;DHT22;10250;50.756;6.172;2024-02-26T07:53:03;5.00;99.90
20182;DHT22;10250;50.756;6.172;2024-02-26T07:55:04;5.00;99.90
20182;DHT22;10250;50.756;6.172;2024-02-26T07:57:05;5.00;99.90
20182;DHT22;10250;50.756;6.172;2024-02-26T07:59:06;5.00;99.90
20182;DHT22;10250;50.756;6.172;2024-02-26T08:01:07;5.00;99.90
20182;DHT22;10250;50.756;6.172;2024-02-26T08:03:07;5.00;99.90
20182;DHT22;10250;50.756;6.172;2024-02-26T08:05:08;5.10;99.90
20182;DHT22;10250;50.756;6.172;2024-02-26T08:07:08;5.00;99.90
20182;DHT22;10250;50.756;6.172;2024-02-26T08:09:09;5.10;99.90
20182;DHT22;10250;50.756;6.172;2024-02-26T08:11:10;5.10;99.90
20182;DHT22;10250;50.756;6.172;2024-02-26T08:13:10;5.00;99.90
20182;DHT22;10250;50.756;6.172;2024-02-26T08:15:11;5.00;99.90
20182;DHT22;10250;50.756;6.172;2024-02-26T08:17:11;5.00;99.90
20182;DHT22;10250;50.756;6.172;2024-02-26T08:19:12;5.00;99.90
20182;DHT22;10250;50.756;6.172;2024-02-26T08:21:15;5.00;99.90
20182;DHT22;10250;50.756;6.172;2024-02-26T08:23:15;5.00;99.90
20182;DHT22;10250;50.756;6.172;2024-02-26T08:25:16;5.00;99.90
20182;DHT22;10250;50.756;6.172;2024-02-26T08:27:18;5.00;99.90
20182;DHT22;10250;50.756;6.172;2024-02-26T08:29:18;5.00;99.90
20182;DHT22;10250;50.756;6.172;2024-02-26T08:31:19;5.10;99.90
20182;DHT22;10250;50.756;6.172;2024-02-26T08:33:20;5.10;99.90
20182;DHT22;10250;50.756;6.172;2024-02-26T08:35:20;5.10;99.90
20182;DHT22;10250;50.756;6.172;2024-02-26T08:37:21;5.10;99.90
20182;DHT22;10250;50.756;6.172;2024-02-26T08:39:22;5.10;99.90
20182;DHT22;10250;50.756;6.172;2024-02-26T08:41:22;5.10;99.90
20182;DHT22;10250;50.756;6.172;2024-02-26T08:43:23;5.10;99.90
20182;DHT22;10250;50.756;6.172;2024-02-26T08:45:23;5.00;99.90
20182;DHT22;10250;50.756;6.172;2024-02-26T08:47:24;5.00;99.90
20182;DHT22;10250;50.756;6.172;2024-02-26T08:49:25;5.00;99.90
20182;DHT22;10250;50.756;6.172;2024-02-26T08:51:26;5.00;99.90
20182;DHT22;10250;50.756;6.172;2024-02-26T08:53:26;5.00;99.90
20182;DHT22;10250;50.756;6.172;2024-02-26T08:55:27;4.90;99.90
20182;DHT22;10250;50.756;6.172;2024-02-26T08:57:27;5.00;99.90
20182;DHT22;10250;50.756;6.172;2024-02-26T08:59:28;5.00;99.90
20182;DHT22;10250;50.756;6.172;2024-02-26T09:01:31;5.00;99.90
20182;DHT22;10250;50.756;6.172;2024-02-26T09:03:31;5.00;99.90
20182;DHT22;10250;50.756;6.172;2024-02-26T09:05:32;4.90;99.90
20182;DHT22;10250;50.756;6.172;2024-02-26T09:07:32;5.00;99.90
20182;DHT22;10250;50.756;6.172;2024-02-26T09:09:34;5.00;99.90
20182;DHT22;10250;50.756;6.172;2024-02-26T09:13:36;5.00;99.90
20182;DHT22;10250;50.756;6.172;2024-02-26T09:15:36;5.00;99.90
20182;DHT22;10250;50.756;6.172;2024-02-26T09:17:37;5.10;99.90
20182;DHT22;10250;50.756;6.172;2024-02-26T09:19:38;5.10;99.90
20182;DHT22;10250;50.756;6.172;2024-02-26T09:21:43;5.10;99.90
20182;DHT22;10250;50.756;6.172;2024-02-26T09:23:43;5.00;99.90
20182;DHT22;10250;50.756;6.172;2024-02-26T09:25:44;5.00;99.90
20182;DHT22;10250;50.756;6.172;2024-02-26T09:27:44;5.00;99.90
20182;DHT22;10250;50.756;6.172;2024-02-26T09:29:45;5.00;99.90
20182;DHT22;10250;50.756;6.172;2024-02-26T09:31:46;5.00;99.90
20182;DHT22;10250;50.756;6.172;2024-02-26T09:33:50;5.00;99.90
20182;DHT22;10250;50.756;6.172;2024-02-26T09:35:50;5.00;99.90
20182;DHT22;10250;50.756;6.172;2024-02-26T09:37:51;5.00;99.90
20182;DHT22;10250;50.756;6.172;2024-02-26T09:39:51;5.00;99.90
20182;DHT22;10250;50.756;6.172;2024-02-26T09:41:52;5.10;99.90
20182;DHT22;10250;50.756;6.172;2024-02-26T09:43:56;5.10;99.90
20182;DHT22;10250;50.756;6.172;2024-02-26T09:45:57;5.10;99.90
20182;DHT22;10250;50.756;6.172;2024-02-26T09:47:58;5.10;99.90
20182;DHT22;10250;50.756;6.172;2024-02-26T09:50:00;5.00;99.90
20182;DHT22;10250;50.756;6.172;2024-02-26T09:52:04;5.00;99.90
20182;DHT22;10250;50.756;6.172;2024-02-26T09:54:09;5.00;99.90
20182;DHT22;10250;50.756;6.172;2024-02-26T09:56:11;5.10;99.90
20182;DHT22;10250;50.756;6.172;2024-02-26T09:58:12;5.10;99.90
20182;DHT22;10250;50.756;6.172;2024-02-26T10:00:19;5.10;99.90
20182;DHT22;10250;50.756;6.172;2024-02-26T10:02:21;5.10;99.90
20182;DHT22;10250;50.756;6.172;2024-02-26T10:04:22;5.10;99.90
20182;DHT22;10250;50.756;6.172;2024-02-26T10:06:26;5.10;99.90
20182;DHT22;10250;50.756;6.172;2024-02-26T10:08:27;5.10;99.90
20182;DHT22;10250;50.756;6.172;2024-02-26T10:10:29;5.20;99.90
20182;DHT22;10250;50.756;6.172;2024-02-26T10:12:32;5.20;99.90
20182;DHT22;10250;50.756;6.172;2024-02-26T10:14:33;5.20;99.90
20182;DHT22;10250;50.756;6.172;2024-02-26T10:16:33;5.20;99.90
20182;DHT22;10250;50.756;6.172;2024-02-26T10:18:48;5.20;99.90
20182;DHT22;10250;50.756;6.172;2024-02-26T10:21:02;5.20;99.90
20182;DHT22;10250;50.756;6.172;2024-02-26T10:23:03;5.20;99.90
20182;DHT22;10250;50.756;6.172;2024-02-26T10:25:05;5.20;99.90
20182;DHT22;10250;50.756;6.172;2024-02-26T10:27:06;5.20;99.90
20182;DHT22;10250;50.756;6.172;2024-02-26T10:29:08;5.30;99.90
20182;DHT22;10250;50.756;6.172;2024-02-26T10:31:10;5.30;99.90
20182;DHT22;10250;50.756;6.172;2024-02-26T10:33:10;5.30;99.90
20182;DHT22;10250;50.756;6.172;2024-02-26T10:35:11;5.40;99.90
20182;DHT22;10250;50.756;6.172;2024-02-26T10:37:12;5.40;99.90
20182;DHT22;10250;50.756;6.172;2024-02-26T10:39:13;5.40;99.90
20182;DHT22;10250;50.756;6.172;2024-02-26T10:41:14;5.40;99.90
20182;DHT22;10250;50.756;6.172;2024-02-26T10:43:15;5.40;99.90
20182;DHT22;10250;50.756;6.172;2024-02-26T10:45:16;5.40;99.90
20182;DHT22;10250;50.756;6.172;2024-02-26T10:47:17;5.40;99.90
20182;DHT22;10250;50.756;6.172;2024-02-26T10:49:18;5.40;99.90
20182;DHT22;10250;50.756;6.172;2024-02-26T10:51:26;5.50;99.90
20182;DHT22;10250;50.756;6.172;2024-02-26T10:53:29;5.50;99.90
20182;DHT22;10250;50.756;6.172;2024-02-26T10:55:31;5.50;99.90
20182;DHT22;10250;50.756;6.172;2024-02-26T10:57:38;5.50;99.90
20182;DHT22;10250;50.756;6.172;2024-02-26T10:59:41;5.50;99.90
20182;DHT22;10250;50.756;6.172;2024-02-26T11:01:43;5.60;99.90
20182;DHT22;10250;50.756;6.172;2024-02-26T11:03:50;5.60;99.90
20182;DHT22;10250;50.756;6.172;2024-02-26T11:05:51;5.60;99.90
20182;DHT22;10250;50.756;6.172;2024-02-26T11:07:52;5.60;99.90
20182;DHT22;10250;50.756;6.172;2024-02-26T11:09:53;5.60;99.90
20182;DHT22;10250;50.756;6.172;2024-02-26T11:11:57;5.60;99.90
20182;DHT22;10250;50.756;6.172;2024-02-26T11:13:59;5.60;99.90
20182;DHT22;10250;50.756;6.172;2024-02-26T11:16:02;5.60;99.90
20182;DHT22;10250;50.756;6.172;2024-02-26T11:18:03;5.60;99.90
20182;DHT22;10250;50.756;6.172;2024-02-26T11:20:05;5.50;99.90
20182;DHT22;10250;50.756;6.172;2024-02-26T11:22:07;5.60;99.90
20182;DHT22;10250;50.756;6.172;2024-02-26T11:24:13;5.60;99.90
20182;DHT22;10250;50.756;6.172;2024-02-26T11:26:15;5.50;99.90
20182;DHT22;10250;50.756;6.172;2024-02-26T11:28:18;5.50;99.90
20182;DHT22;10250;50.756;6.172;2024-02-26T11:30:20;5.50;99.90
20182;DHT22;10250;50.756;6.172;2024-02-26T11:32:21;5.50;99.90
20182;DHT22;10250;50.756;6.172;2024-02-26T11:34:22;5.40;99.90
20182;DHT22;10250;50.756;6.172;2024-02-26T11:36:24;5.40;99.90
20182;DHT22;10250;50.756;6.172;2024-02-26T11:38:26;5.40;99.90
20182;DHT22;10250;50.756;6.172;2024-02-26T11:40:27;5.40;99.90
20182;DHT22;10250;50.756;6.172;2024-02-26T11:42:28;5.40;99.90
20182;DHT22;10250;50.756;6.172;2024-02-26T11:44:30;5.40;99.90
20182;DHT22;10250;50.756;6.172;2024-02-26T11:46:32;5.40;99.90
20182;DHT22;10250;50.756;6.172;2024-02-26T11:48:33;5.30;99.90
20182;DHT22;10250;50.756;6.172;2024-02-26T11:50:35;5.30;99.90
20182;DHT22;10250;50.756;6.172;2024-02-26T11:52:38;5.30;99.90
20182;DHT22;10250;50.756;6.172;2024-02-26T11:54:51;5.30;99.90
20182;DHT22;10250;50.756;6.172;2024-02-26T11:56:57;5.30;99.90
20182;DHT22;10250;50.756;6.172;2024-02-26T11:59:11;5.30;99.90
20182;DHT22;10250;50.756;6.172;2024-02-26T12:03:39;5.30;99.90
20182;DHT22;10250;50.756;6.172;2024-02-26T12:05:40;5.20;99.90
20182;DHT22;10250;50.756;6.172;2024-02-26T12:07:49;5.30;99.90
20182;DHT22;10250;50.756;6.172;2024-02-26T12:09:50;5.20;99.90
20182;DHT22;10250;50.756;6.172;2024-02-26T12:11:50;5.20;99.90
20182;DHT22;10250;50.756;6.172;2024-02-26T12:13:51;5.30;99.90
20182;DHT22;10250;50.756;6.172;2024-02-26T12:15:55;5.30;99.90
20182;DHT22;10250;50.756;6.172;2024-02-26T12:17:56;5.30;99.90
20182;DHT22;10250;50.756;6.172;2024-02-26T12:20:08;5.30;99.90
20182;DHT22;10250;50.756;6.172;2024-02-26T12:22:13;5.30;99.90
20182;DHT22;10250;50.756;6.172;2024-02-26T12:24:15;5.30;99.90
20182;DHT22;10250;50.756;6.172;2024-02-26T12:26:19;5.40;99.90
20182;DHT22;10250;50.756;6.172;2024-02-26T12:28:20;5.40;99.90
20182;DHT22;10250;50.756;6.172;2024-02-26T12:30:21;5.30;99.90
20182;DHT22;10250;50.756;6.172;2024-02-26T12:32:23;5.30;99.90
20182;DHT22;10250;50.756;6.172;2024-02-26T12:34:24;5.30;99.90
20182;DHT22;10250;50.756;6.172;2024-02-26T12:36:25;5.30;99.90
20182;DHT22;10250;50.756;6.172;2024-02-26T12:38:26;5.50;99.90
20182;DHT22;10250;50.756;6.172;2024-02-26T12:40:27;5.40;99.90
20182;DHT22;10250;50.756;6.172;2024-02-26T12:42:29;5.50;99.90
20182;DHT22;10250;50.756;6.172;2024-02-26T12:44:31;5.40;99.90
20182;DHT22;10250;50.756;6.172;2024-02-26T12:46:31;5.40;99.90
20182;DHT22;10250;50.756;6.172;2024-02-26T12:48:32;5.50;99.90
20182;DHT22;10250;50.756;6.172;2024-02-26T12:50:33;5.50;99.90
20182;DHT22;10250;50.756;6.172;2024-02-26T12:52:36;5.50;99.90
20182;DHT22;10250;50.756;6.172;2024-02-26T12:54:37;5.50;99.90
20182;DHT22;10250;50.756;6.172;2024-02-26T12:56:41;5.50;99.90
20182;DHT22;10250;50.756;6.172;2024-02-26T12:58:42;5.40;99.90
20182;DHT22;10250;50.756;6.172;2024-02-26T13:00:44;5.50;99.90
20182;DHT22;10250;50.756;6.172;2024-02-26T13:02:45;5.50;99.90